sensor_id;sensor_type;location;lat;lon;timestamp;temperature;humidity
66035;HTU21D;52805;51.074;5.842;2023-12-22T00:01:27;7.33;118.99
66035;HTU21D;52805;51.074;5.842;2023-12-22T00:03:53;7.31;118.99
66035;HTU21D;52805;51.074;5.842;2023-12-22T00:06:19;7.20;118.99
66035;HTU21D;52805;51.074;5.842;2023-12-22T00:08:44;7.23;118.99
66035;HTU21D;52805;51.074;5.842;2023-12-22T00:11:10;7.26;118.99
66035;HTU21D;52805;51.074;5.842;2023-12-22T00:13:36;7.28;118.99
66035;HTU21D;52805;51.074;5.842;2023-12-22T00:16:02;7.38;118.99
66035;HTU21D;52805;51.074;5.842;2023-12-22T00:18:27;7.39;118.99
66035;HTU21D;52805;51.074;5.842;2023-12-22T00:20:54;7.42;118.99
66035;HTU21D;52805;51.074;5.842;2023-12-22T00:23:20;7.50;118.99
66035;HTU21D;52805;51.074;5.842;2023-12-22T00:25:45;7.63;118.99
66035;HTU21D;52805;51.074;5.842;2023-12-22T00:28:11;7.71;118.99
66035;HTU21D;52805;51.074;5.842;2023-12-22T00:30:36;7.76;118.99
66035;HTU21D;52805;51.074;5.842;2023-12-22T00:33:02;7.86;118.99
66035;HTU21D;52805;51.074;5.842;2023-12-22T00:35:28;7.77;118.99
66035;HTU21D;52805;51.074;5.842;2023-12-22T00:37:54;7.83;118.99
66035;HTU21D;52805;51.074;5.842;2023-12-22T00:40:19;7.81;118.99
66035;HTU21D;52805;51.074;5.842;2023-12-22T00:42:45;7.81;118.99
66035;HTU21D;52805;51.074;5.842;2023-12-22T00:45:11;7.83;118.99
66035;HTU21D;52805;51.074;5.842;2023-12-22T00:47:36;7.84;118.99
66035;HTU21D;52805;51.074;5.842;2023-12-22T00:50:03;7.86;118.99
66035;HTU21D;52805;51.074;5.842;2023-12-22T00:52:30;7.94;118.99
66035;HTU21D;52805;51.074;5.842;2023-12-22T00:54:56;7.97;118.99
66035;HTU21D;52805;51.074;5.842;2023-12-22T00:57:22;8.07;118.99
66035;HTU21D;52805;51.074;5.842;2023-12-22T00:59:47;8.12;118.99
66035;HTU21D;52805;51.074;5.842;2023-12-22T01:02:14;8.17;118.99
66035;HTU21D;52805;51.074;5.842;2023-12-22T01:04:40;8.21;118.99
66035;HTU21D;52805;51.074;5.842;2023-12-22T01:07:07;8.26;118.99
66035;HTU21D;52805;51.074;5.842;2023-12-22T01:09:34;8.28;118.99
66035;HTU21D;52805;51.074;5.842;2023-12-22T01:11:59;8.31;118.99
66035;HTU21D;52805;51.074;5.842;2023-12-22T01:14:28;8.30;118.99
66035;HTU21D;52805;51.074;5.842;2023-12-22T01:16:54;8.30;118.99
66035;HTU21D;52805;51.074;5.842;2023-12-22T01:19:20;8.33;118.99
66035;HTU21D;52805;51.074;5.842;2023-12-22T01:21:45;8.34;118.99
66035;HTU21D;52805;51.074;5.842;2023-12-22T01:24:11;8.33;118.99
66035;HTU21D;52805;51.074;5.842;2023-12-22T01:26:37;8.09;118.99
66035;HTU21D;52805;51.074;5.842;2023-12-22T01:29:03;7.99;118.99
66035;HTU21D;52805;51.074;5.842;2023-12-22T01:31:29;7.91;118.99
66035;HTU21D;52805;51.074;5.842;2023-12-22T01:33:54;7.72;118.99
66035;HTU21D;52805;51.074;5.842;2023-12-22T01:36:20;7.70;118.99
66035;HTU21D;52805;51.074;5.842;2023-12-22T01:38:46;7.71;118.99
66035;HTU21D;52805;51.074;5.842;2023-12-22T01:41:12;7.73;118.99
66035;HTU21D;52805;51.074;5.842;2023-12-22T01:43:37;7.75;118.99
66035;HTU21D;52805;51.074;5.842;2023-12-22T01:46:04;7.77;118.99
66035;HTU21D;52805;51.074;5.842;2023-12-22T01:48:31;7.77;118.99
66035;HTU21D;52805;51.074;5.842;2023-12-22T01:51:01;7.76;118.99
66035;HTU21D;52805;51.074;5.842;2023-12-22T01:53:28;7.79;118.99
66035;HTU21D;52805;51.074;5.842;2023-12-22T01:55:55;7.86;118.99
66035;HTU21D;52805;51.074;5.842;2023-12-22T01:58:23;7.85;118.99
66035;HTU21D;52805;51.074;5.842;2023-12-22T02:00:49;7.82;118.99
66035;HTU21D;52805;51.074;5.842;2023-12-22T02:03:15;7.85;118.99
66035;HTU21D;52805;51.074;5.842;2023-12-22T02:05:43;7.82;118.99
66035;HTU21D;52805;51.074;5.842;2023-12-22T02:08:11;7.78;118.99
66035;HTU21D;52805;51.074;5.842;2023-12-22T02:10:38;7.73;118.99
66035;HTU21D;52805;51.074;5.842;2023-12-22T02:13:05;7.70;118.99
66035;HTU21D;52805;51.074;5.842;2023-12-22T02:15:32;7.77;118.99
66035;HTU21D;52805;51.074;5.842;2023-12-22T02:18:11;7.84;118.99
66035;HTU21D;52805;51.074;5.842;2023-12-22T02:20:38;7.84;118.99
66035;HTU21D;52805;51.074;5.842;2023-12-22T02:23:04;7.91;118.99
66035;HTU21D;52805;51.074;5.842;2023-12-22T02:25:30;7.90;118.99
66035;HTU21D;52805;51.074;5.842;2023-12-22T02:28:01;7.92;118.99
66035;HTU21D;52805;51.074;5.842;2023-12-22T02:30:48;7.86;118.99
66035;HTU21D;52805;51.074;5.842;2023-12-22T02:33:19;7.87;118.99
66035;HTU21D;52805;51.074;5.842;2023-12-22T02:35:49;7.86;118.99
66035;HTU21D;52805;51.074;5.842;2023-12-22T02:38:16;7.86;118.99
66035;HTU21D;52805;51.074;5.842;2023-12-22T02:40:43;7.87;118.99
66035;HTU21D;52805;51.074;5.842;2023-12-22T02:43:09;7.94;118.99
66035;HTU21D;52805;51.074;5.842;2023-12-22T02:45:35;7.91;118.99
66035;HTU21D;52805;51.074;5.842;2023-12-22T02:48:01;7.99;118.99
66035;HTU21D;52805;51.074;5.842;2023-12-22T02:50:26;8.03;118.99
66035;HTU21D;52805;51.074;5.842;2023-12-22T02:52:52;8.12;118.99
66035;HTU21D;52805;51.074;5.842;2023-12-22T02:55:18;8.14;118.99
66035;HTU21D;52805;51.074;5.842;2023-12-22T02:57:43;8.12;118.99
66035;HTU21D;52805;51.074;5.842;2023-12-22T03:00:09;8.03;118.99
66035;HTU21D;52805;51.074;5.842;2023-12-22T03:02:35;7.88;118.99
66035;HTU21D;52805;51.074;5.842;2023-12-22T03:05:01;7.90;118.99
66035;HTU21D;52805;51.074;5.842;2023-12-22T03:07:26;7.90;118.99
66035;HTU21D;52805;51.074;5.842;2023-12-22T03:09:52;7.86;118.99
66035;HTU21D;52805;51.074;5.842;2023-12-22T03:12:18;7.86;118.99
66035;HTU21D;52805;51.074;5.842;2023-12-22T03:14:43;7.89;118.99
66035;HTU21D;52805;51.074;5.842;2023-12-22T03:17:09;7.90;118.99
66035;HTU21D;52805;51.074;5.842;2023-12-22T03:19:36;7.87;118.99
66035;HTU21D;52805;51.074;5.842;2023-12-22T03:22:02;7.86;118.99
66035;HTU21D;52805;51.074;5.842;2023-12-22T03:24:28;7.91;118.99
66035;HTU21D;52805;51.074;5.842;2023-12-22T03:26:54;7.87;118.99
66035;HTU21D;52805;51.074;5.842;2023-12-22T03:29:20;7.88;118.99
66035;HTU21D;52805;51.074;5.842;2023-12-22T03:31:46;7.92;118.99
66035;HTU21D;52805;51.074;5.842;2023-12-22T03:34:12;7.92;118.99
66035;HTU21D;52805;51.074;5.842;2023-12-22T03:36:38;7.93;118.99
66035;HTU21D;52805;51.074;5.842;2023-12-22T03:39:04;7.97;118.99
66035;HTU21D;52805;51.074;5.842;2023-12-22T03:41:30;7.99;118.99
66035;HTU21D;52805;51.074;5.842;2023-12-22T03:43:56;8.00;118.99
66035;HTU21D;52805;51.074;5.842;2023-12-22T03:46:23;8.05;118.99
66035;HTU21D;52805;51.074;5.842;2023-12-22T03:48:51;8.07;118.99
66035;HTU21D;52805;51.074;5.842;2023-12-22T03:51:17;8.05;118.99
66035;HTU21D;52805;51.074;5.842;2023-12-22T03:53:43;8.11;118.99
66035;HTU21D;52805;51.074;5.842;2023-12-22T03:56:08;8.09;118.99
66035;HTU21D;52805;51.074;5.842;2023-12-22T03:58:37;8.09;118.99
66035;HTU21D;52805;51.074;5.842;2023-12-22T04:01:04;8.14;118.99
66035;HTU21D;52805;51.074;5.842;2023-12-22T04:03:30;8.15;118.99
66035;HTU21D;52805;51.074;5.842;2023-12-22T04:05:55;8.23;118.99
66035;HTU21D;52805;51.074;5.842;2023-12-22T04:08:21;8.27;118.99
66035;HTU21D;52805;51.074;5.842;2023-12-22T04:10:47;8.23;118.99
66035;HTU21D;52805;51.074;5.842;2023-12-22T04:13:13;8.20;118.99
66035;HTU21D;52805;51.074;5.842;2023-12-22T04:15:39;8.24;118.99
66035;HTU21D;52805;51.074;5.842;2023-12-22T04:18:05;8.23;118.99
66035;HTU21D;52805;51.074;5.842;2023-12-22T04:20:31;8.19;118.99
66035;HTU21D;52805;51.074;5.842;2023-12-22T04:22:57;8.27;118.99
66035;HTU21D;52805;51.074;5.842;2023-12-22T04:25:23;8.26;118.99
66035;HTU21D;52805;51.074;5.842;2023-12-22T04:27:50;8.29;118.99
66035;HTU21D;52805;51.074;5.842;2023-12-22T04:30:16;8.29;118.99
66035;HTU21D;52805;51.074;5.842;2023-12-22T04:32:41;8.29;118.99
66035;HTU21D;52805;51.074;5.842;2023-12-22T04:35:07;8.35;118.99
66035;HTU21D;52805;51.074;5.842;2023-12-22T04:37:33;8.35;118.99
66035;HTU21D;52805;51.074;5.842;2023-12-22T04:39:59;8.36;118.99
66035;HTU21D;52805;51.074;5.842;2023-12-22T04:42:25;8.41;118.99
66035;HTU21D;52805;51.074;5.842;2023-12-22T04:44:51;8.50;118.99
66035;HTU21D;52805;51.074;5.842;2023-12-22T04:47:17;8.58;118.99
66035;HTU21D;52805;51.074;5.842;2023-12-22T04:49:43;8.60;118.99
66035;HTU21D;52805;51.074;5.842;2023-12-22T04:52:11;8.59;118.99
66035;HTU21D;52805;51.074;5.842;2023-12-22T04:54:37;8.66;118.99
66035;HTU21D;52805;51.074;5.842;2023-12-22T04:57:03;8.70;118.99
66035;HTU21D;52805;51.074;5.842;2023-12-22T04:59:29;8.71;118.99
66035;HTU21D;52805;51.074;5.842;2023-12-22T05:01:55;8.75;118.99
66035;HTU21D;52805;51.074;5.842;2023-12-22T05:04:20;8.77;118.99
66035;HTU21D;52805;51.074;5.842;2023-12-22T05:06:47;8.74;118.99
66035;HTU21D;52805;51.074;5.842;2023-12-22T05:09:13;8.76;118.99
66035;HTU21D;52805;51.074;5.842;2023-12-22T05:11:39;8.77;118.99
66035;HTU21D;52805;51.074;5.842;2023-12-22T05:14:04;8.82;118.99
66035;HTU21D;52805;51.074;5.842;2023-12-22T05:16:30;8.83;118.99
66035;HTU21D;52805;51.074;5.842;2023-12-22T05:19:00;8.83;118.99
66035;HTU21D;52805;51.074;5.842;2023-12-22T05:21:26;8.88;118.99
66035;HTU21D;52805;51.074;5.842;2023-12-22T05:23:53;8.83;118.99
66035;HTU21D;52805;51.074;5.842;2023-12-22T05:26:20;8.79;118.99
66035;HTU21D;52805;51.074;5.842;2023-12-22T05:28:47;8.77;118.99
66035;HTU21D;52805;51.074;5.842;2023-12-22T05:31:15;8.71;118.99
66035;HTU21D;52805;51.074;5.842;2023-12-22T05:33:41;8.68;118.99
66035;HTU21D;52805;51.074;5.842;2023-12-22T05:36:07;8.62;118.99
66035;HTU21D;52805;51.074;5.842;2023-12-22T05:38:32;8.61;118.99
66035;HTU21D;52805;51.074;5.842;2023-12-22T05:40:58;8.60;118.99
66035;HTU21D;52805;51.074;5.842;2023-12-22T05:43:24;8.63;118.99
66035;HTU21D;52805;51.074;5.842;2023-12-22T05:45:49;8.67;118.99
66035;HTU21D;52805;51.074;5.842;2023-12-22T05:48:15;8.63;118.99
66035;HTU21D;52805;51.074;5.842;2023-12-22T05:50:40;8.56;118.99
66035;HTU21D;52805;51.074;5.842;2023-12-22T05:53:06;8.49;118.99
66035;HTU21D;52805;51.074;5.842;2023-12-22T05:55:32;8.45;118.99
66035;HTU21D;52805;51.074;5.842;2023-12-22T05:57:57;8.46;118.99
66035;HTU21D;52805;51.074;5.842;2023-12-22T06:00:23;8.45;118.99
66035;HTU21D;52805;51.074;5.842;2023-12-22T06:02:49;8.45;118.99
66035;HTU21D;52805;51.074;5.842;2023-12-22T06:05:14;8.48;118.99
66035;HTU21D;52805;51.074;5.842;2023-12-22T06:07:40;8.50;118.99
66035;HTU21D;52805;51.074;5.842;2023-12-22T06:10:06;8.51;118.99
66035;HTU21D;52805;51.074;5.842;2023-12-22T06:12:35;8.49;118.99
66035;HTU21D;52805;51.074;5.842;2023-12-22T06:15:01;8.53;118.99
66035;HTU21D;52805;51.074;5.842;2023-12-22T06:17:26;8.63;118.99
66035;HTU21D;52805;51.074;5.842;2023-12-22T06:19:52;8.61;118.99
66035;HTU21D;52805;51.074;5.842;2023-12-22T06:22:18;8.71;118.99
66035;HTU21D;52805;51.074;5.842;2023-12-22T06:24:43;8.77;118.99
66035;HTU21D;52805;51.074;5.842;2023-12-22T06:27:10;8.86;118.99
66035;HTU21D;52805;51.074;5.842;2023-12-22T06:29:36;8.94;118.99
66035;HTU21D;52805;51.074;5.842;2023-12-22T06:32:01;8.95;118.99
66035;HTU21D;52805;51.074;5.842;2023-12-22T06:34:27;8.96;118.99
66035;HTU21D;52805;51.074;5.842;2023-12-22T06:36:53;9.06;118.99
66035;HTU21D;52805;51.074;5.842;2023-12-22T06:39:18;9.06;118.99
66035;HTU21D;52805;51.074;5.842;2023-12-22T06:41:45;9.07;118.99
66035;HTU21D;52805;51.074;5.842;2023-12-22T06:44:10;9.08;118.99
66035;HTU21D;52805;51.074;5.842;2023-12-22T06:46:36;9.11;118.99
66035;HTU21D;52805;51.074;5.842;2023-12-22T06:49:02;9.09;118.99
66035;HTU21D;52805;51.074;5.842;2023-12-22T06:51:30;9.08;118.99
66035;HTU21D;52805;51.074;5.842;2023-12-22T06:53:56;9.10;118.99
66035;HTU21D;52805;51.074;5.842;2023-12-22T06:56:25;9.12;118.99
66035;HTU21D;52805;51.074;5.842;2023-12-22T06:58:53;9.11;118.99
66035;HTU21D;52805;51.074;5.842;2023-12-22T07:01:22;9.12;118.99
66035;HTU21D;52805;51.074;5.842;2023-12-22T07:03:49;9.11;118.99
66035;HTU21D;52805;51.074;5.842;2023-12-22T07:06:16;9.12;118.99
66035;HTU21D;52805;51.074;5.842;2023-12-22T07:08:42;9.12;118.99
66035;HTU21D;52805;51.074;5.842;2023-12-22T07:11:12;9.10;118.99
66035;HTU21D;52805;51.074;5.842;2023-12-22T07:13:38;9.17;118.99
66035;HTU21D;52805;51.074;5.842;2023-12-22T07:16:04;9.16;118.99
66035;HTU21D;52805;51.074;5.842;2023-12-22T07:18:30;9.14;118.99
66035;HTU21D;52805;51.074;5.842;2023-12-22T07:20:57;9.18;118.99
66035;HTU21D;52805;51.074;5.842;2023-12-22T07:23:23;9.15;118.99
66035;HTU21D;52805;51.074;5.842;2023-12-22T07:25:49;9.15;118.99
66035;HTU21D;52805;51.074;5.842;2023-12-22T07:28:14;9.19;118.99
66035;HTU21D;52805;51.074;5.842;2023-12-22T07:30:42;9.20;118.99
66035;HTU21D;52805;51.074;5.842;2023-12-22T07:33:08;9.20;118.99
66035;HTU21D;52805;51.074;5.842;2023-12-22T07:35:33;9.16;118.99
66035;HTU21D;52805;51.074;5.842;2023-12-22T07:38:00;9.16;118.99
66035;HTU21D;52805;51.074;5.842;2023-12-22T07:40:28;9.12;118.99
66035;HTU21D;52805;51.074;5.842;2023-12-22T07:42:59;9.19;118.99
66035;HTU21D;52805;51.074;5.842;2023-12-22T07:45:25;9.21;118.99
66035;HTU21D;52805;51.074;5.842;2023-12-22T07:47:53;9.19;118.99
66035;HTU21D;52805;51.074;5.842;2023-12-22T07:50:19;9.21;118.99
66035;HTU21D;52805;51.074;5.842;2023-12-22T07:52:46;9.26;118.99
66035;HTU21D;52805;51.074;5.842;2023-12-22T07:55:12;9.27;118.99
66035;HTU21D;52805;51.074;5.842;2023-12-22T07:57:38;9.23;118.99
66035;HTU21D;52805;51.074;5.842;2023-12-22T08:00:04;9.22;118.99
66035;HTU21D;52805;51.074;5.842;2023-12-22T08:02:37;9.25;118.99
66035;HTU21D;52805;51.074;5.842;2023-12-22T08:05:04;9.31;118.99
66035;HTU21D;52805;51.074;5.842;2023-12-22T08:07:30;9.24;118.99
66035;HTU21D;52805;51.074;5.842;2023-12-22T08:09:56;9.24;118.99
66035;HTU21D;52805;51.074;5.842;2023-12-22T08:12:22;9.25;118.99
66035;HTU21D;52805;51.074;5.842;2023-12-22T08:14:48;9.21;118.99
66035;HTU21D;52805;51.074;5.842;2023-12-22T08:17:13;9.20;118.99
66035;HTU21D;52805;51.074;5.842;2023-12-22T08:19:40;9.19;118.99
66035;HTU21D;52805;51.074;5.842;2023-12-22T08:22:09;9.18;118.99
66035;HTU21D;52805;51.074;5.842;2023-12-22T08:24:36;9.24;118.99
66035;HTU21D;52805;51.074;5.842;2023-12-22T08:27:01;9.20;118.99
66035;HTU21D;52805;51.074;5.842;2023-12-22T08:29:27;9.23;118.99
66035;HTU21D;52805;51.074;5.842;2023-12-22T08:31:53;9.19;118.99
66035;HTU21D;52805;51.074;5.842;2023-12-22T08:34:19;9.23;118.99
66035;HTU21D;52805;51.074;5.842;2023-12-22T08:36:44;9.19;118.99
66035;HTU21D;52805;51.074;5.842;2023-12-22T08:39:10;9.22;118.99
66035;HTU21D;52805;51.074;5.842;2023-12-22T08:41:36;9.22;118.99
66035;HTU21D;52805;51.074;5.842;2023-12-22T08:44:06;9.21;118.99
66035;HTU21D;52805;51.074;5.842;2023-12-22T08:46:32;9.26;118.99
66035;HTU21D;52805;51.074;5.842;2023-12-22T08:48:58;9.30;118.99
66035;HTU21D;52805;51.074;5.842;2023-12-22T08:51:27;9.32;118.99
66035;HTU21D;52805;51.074;5.842;2023-12-22T08:53:54;9.33;118.99
66035;HTU21D;52805;51.074;5.842;2023-12-22T08:56:23;9.41;118.99
66035;HTU21D;52805;51.074;5.842;2023-12-22T08:58:50;9.35;118.99
66035;HTU21D;52805;51.074;5.842;2023-12-22T09:01:18;9.39;118.99
66035;HTU21D;52805;51.074;5.842;2023-12-22T09:03:44;9.39;118.99
66035;HTU21D;52805;51.074;5.842;2023-12-22T09:06:15;9.41;118.99
66035;HTU21D;52805;51.074;5.842;2023-12-22T09:08:45;9.36;118.99
66035;HTU21D;52805;51.074;5.842;2023-12-22T09:11:16;9.39;118.99
66035;HTU21D;52805;51.074;5.842;2023-12-22T09:13:43;9.41;118.99
66035;HTU21D;52805;51.074;5.842;2023-12-22T09:16:09;9.44;118.99
66035;HTU21D;52805;51.074;5.842;2023-12-22T09:18:36;9.38;118.99
66035;HTU21D;52805;51.074;5.842;2023-12-22T09:21:02;9.39;118.99
66035;HTU21D;52805;51.074;5.842;2023-12-22T09:23:29;9.41;118.99
66035;HTU21D;52805;51.074;5.842;2023-12-22T09:25:55;9.40;118.99
66035;HTU21D;52805;51.074;5.842;2023-12-22T09:28:20;9.44;118.99
66035;HTU21D;52805;51.074;5.842;2023-12-22T09:30:46;9.44;118.99
66035;HTU21D;52805;51.074;5.842;2023-12-22T09:33:12;9.46;118.99
66035;HTU21D;52805;51.074;5.842;2023-12-22T09:35:38;9.56;118.99
66035;HTU21D;52805;51.074;5.842;2023-12-22T09:38:08;9.52;118.99
66035;HTU21D;52805;51.074;5.842;2023-12-22T09:40:38;9.56;118.99
66035;HTU21D;52805;51.074;5.842;2023-12-22T09:43:07;9.52;118.99
66035;HTU21D;52805;51.074;5.842;2023-12-22T09:45:34;9.51;118.99
66035;HTU21D;52805;51.074;5.842;2023-12-22T09:48:01;9.63;118.99
66035;HTU21D;52805;51.074;5.842;2023-12-22T09:50:27;9.61;118.99
66035;HTU21D;52805;51.074;5.842;2023-12-22T09:52:54;9.61;118.99
66035;HTU21D;52805;51.074;5.842;2023-12-22T09:55:25;9.62;118.99
66035;HTU21D;52805;51.074;5.842;2023-12-22T09:57:52;9.55;118.99
66035;HTU21D;52805;51.074;5.842;2023-12-22T10:00:18;9.52;118.99
66035;HTU21D;52805;51.074;5.842;2023-12-22T10:02:44;9.51;118.99
66035;HTU21D;52805;51.074;5.842;2023-12-22T10:05:13;9.54;118.99
66035;HTU21D;52805;51.074;5.842;2023-12-22T10:07:44;9.56;118.99
66035;HTU21D;52805;51.074;5.842;2023-12-22T10:10:11;9.61;118.99
66035;HTU21D;52805;51.074;5.842;2023-12-22T10:12:38;9.61;118.99
66035;HTU21D;52805;51.074;5.842;2023-12-22T10:15:08;9.62;118.99
66035;HTU21D;52805;51.074;5.842;2023-12-22T10:17:35;9.66;118.99
66035;HTU21D;52805;51.074;5.842;2023-12-22T10:20:01;9.68;118.99
66035;HTU21D;52805;51.074;5.842;2023-12-22T10:22:28;9.68;118.99
66035;HTU21D;52805;51.074;5.842;2023-12-22T10:24:54;9.77;118.99
66035;HTU21D;52805;51.074;5.842;2023-12-22T10:27:20;9.77;118.99
66035;HTU21D;52805;51.074;5.842;2023-12-22T10:29:54;9.82;118.99
66035;HTU21D;52805;51.074;5.842;2023-12-22T10:32:20;9.88;118.99
66035;HTU21D;52805;51.074;5.842;2023-12-22T10:34:47;9.94;118.99
66035;HTU21D;52805;51.074;5.842;2023-12-22T10:37:13;10.00;118.99
66035;HTU21D;52805;51.074;5.842;2023-12-22T10:39:39;10.12;118.99
66035;HTU21D;52805;51.074;5.842;2023-12-22T10:42:05;10.22;118.99
66035;HTU21D;52805;51.074;5.842;2023-12-22T10:44:31;10.31;118.99
66035;HTU21D;52805;51.074;5.842;2023-12-22T10:46:58;10.37;118.99
66035;HTU21D;52805;51.074;5.842;2023-12-22T10:49:24;10.43;118.99
66035;HTU21D;52805;51.074;5.842;2023-12-22T10:51:51;10.49;118.99
66035;HTU21D;52805;51.074;5.842;2023-12-22T10:54:17;10.51;118.99
66035;HTU21D;52805;51.074;5.842;2023-12-22T10:56:43;10.53;118.99
66035;HTU21D;52805;51.074;5.842;2023-12-22T10:59:09;10.58;118.99
66035;HTU21D;52805;51.074;5.842;2023-12-22T11:01:36;10.55;118.99
66035;HTU21D;52805;51.074;5.842;2023-12-22T11:04:08;10.62;118.99
66035;HTU21D;52805;51.074;5.842;2023-12-22T11:06:37;10.69;118.99
66035;HTU21D;52805;51.074;5.842;2023-12-22T11:09:10;10.64;118.99
66035;HTU21D;52805;51.074;5.842;2023-12-22T11:11:37;10.73;118.99
66035;HTU21D;52805;51.074;5.842;2023-12-22T11:14:04;10.71;118.99
66035;HTU21D;52805;51.074;5.842;2023-12-22T11:16:32;10.80;118.99
66035;HTU21D;52805;51.074;5.842;2023-12-22T11:19:02;10.75;118.99
66035;HTU21D;52805;51.074;5.842;2023-12-22T11:21:29;10.79;118.99
66035;HTU21D;52805;51.074;5.842;2023-12-22T11:23:56;10.78;118.99
66035;HTU21D;52805;51.074;5.842;2023-12-22T11:26:25;10.79;118.99
66035;HTU21D;52805;51.074;5.842;2023-12-22T11:28:52;10.90;118.99
66035;HTU21D;52805;51.074;5.842;2023-12-22T11:31:18;10.95;118.99
66035;HTU21D;52805;51.074;5.842;2023-12-22T11:33:48;11.00;118.99
66035;HTU21D;52805;51.074;5.842;2023-12-22T11:36:15;10.97;118.99
66035;HTU21D;52805;51.074;5.842;2023-12-22T11:38:43;11.01;118.99
66035;HTU21D;52805;51.074;5.842;2023-12-22T11:41:15;11.05;118.99
66035;HTU21D;52805;51.074;5.842;2023-12-22T11:43:44;11.07;118.99
66035;HTU21D;52805;51.074;5.842;2023-12-22T11:46:11;11.07;118.99
66035;HTU21D;52805;51.074;5.842;2023-12-22T11:48:37;11.04;118.99
66035;HTU21D;52805;51.074;5.842;2023-12-22T11:51:13;11.09;118.99
66035;HTU21D;52805;51.074;5.842;2023-12-22T11:53:39;11.09;118.99
66035;HTU21D;52805;51.074;5.842;2023-12-22T11:56:07;11.14;118.99
66035;HTU21D;52805;51.074;5.842;2023-12-22T12:01:13;11.13;118.99
66035;HTU21D;52805;51.074;5.842;2023-12-22T12:03:49;11.10;118.99
66035;HTU21D;52805;51.074;5.842;2023-12-22T12:08:57;11.09;118.99
66035;HTU21D;52805;51.074;5.842;2023-12-22T12:14:31;11.16;118.99
66035;HTU21D;52805;51.074;5.842;2023-12-22T12:17:05;11.23;118.99
66035;HTU21D;52805;51.074;5.842;2023-12-22T12:19:39;11.20;118.99
66035;HTU21D;52805;51.074;5.842;2023-12-22T12:22:07;11.22;118.99
66035;HTU21D;52805;51.074;5.842;2023-12-22T12:24:33;11.19;118.99
66035;HTU21D;52805;51.074;5.842;2023-12-22T12:26:59;11.24;118.99
66035;HTU21D;52805;51.074;5.842;2023-12-22T12:29:25;11.22;118.99
66035;HTU21D;52805;51.074;5.842;2023-12-22T12:31:51;11.14;118.99
66035;HTU21D;52805;51.074;5.842;2023-12-22T12:34:16;11.13;118.99
66035;HTU21D;52805;51.074;5.842;2023-12-22T12:36:47;11.11;118.99
66035;HTU21D;52805;51.074;5.842;2023-12-22T12:39:15;11.15;118.99
66035;HTU21D;52805;51.074;5.842;2023-12-22T12:41:42;11.19;118.99
66035;HTU21D;52805;51.074;5.842;2023-12-22T12:44:11;11.25;118.99
66035;HTU21D;52805;51.074;5.842;2023-12-22T12:46:40;11.25;118.99
66035;HTU21D;52805;51.074;5.842;2023-12-22T12:49:11;11.27;118.99
66035;HTU21D;52805;51.074;5.842;2023-12-22T12:51:38;11.23;118.99
66035;HTU21D;52805;51.074;5.842;2023-12-22T12:54:05;11.31;118.99
66035;HTU21D;52805;51.074;5.842;2023-12-22T12:56:42;11.29;118.99
66035;HTU21D;52805;51.074;5.842;2023-12-22T12:59:09;11.28;118.99
66035;HTU21D;52805;51.074;5.842;2023-12-22T13:04:04;11.31;118.99
66035;HTU21D;52805;51.074;5.842;2023-12-22T13:06:30;11.33;118.99
66035;HTU21D;52805;51.074;5.842;2023-12-22T13:08:56;11.32;118.99
66035;HTU21D;52805;51.074;5.842;2023-12-22T13:11:24;11.29;118.99
66035;HTU21D;52805;51.074;5.842;2023-12-22T13:13:52;11.31;118.99
66035;HTU21D;52805;51.074;5.842;2023-12-22T13:16:20;11.37;118.99
66035;HTU21D;52805;51.074;5.842;2023-12-22T13:18:46;11.30;118.99
66035;HTU21D;52805;51.074;5.842;2023-12-22T13:21:13;11.31;118.99
66035;HTU21D;52805;51.074;5.842;2023-12-22T13:23:39;11.31;118.99
66035;HTU21D;52805;51.074;5.842;2023-12-22T13:26:05;11.37;118.99
66035;HTU21D;52805;51.074;5.842;2023-12-22T13:28:31;11.32;118.99
66035;HTU21D;52805;51.074;5.842;2023-12-22T13:30:57;11.28;118.99
66035;HTU21D;52805;51.074;5.842;2023-12-22T13:33:22;11.22;118.99
66035;HTU21D;52805;51.074;5.842;2023-12-22T13:35:57;11.24;118.99
66035;HTU21D;52805;51.074;5.842;2023-12-22T13:38:23;11.25;118.99
66035;HTU21D;52805;51.074;5.842;2023-12-22T13:40:49;11.26;118.99
66035;HTU21D;52805;51.074;5.842;2023-12-22T13:43:15;11.28;118.99
66035;HTU21D;52805;51.074;5.842;2023-12-22T13:45:41;11.27;118.99
66035;HTU21D;52805;51.074;5.842;2023-12-22T13:48:07;11.28;118.99
66035;HTU21D;52805;51.074;5.842;2023-12-22T13:50:33;11.24;118.99
66035;HTU21D;52805;51.074;5.842;2023-12-22T13:53:08;11.23;118.99
66035;HTU21D;52805;51.074;5.842;2023-12-22T13:55:34;11.24;118.99
66035;HTU21D;52805;51.074;5.842;2023-12-22T13:58:03;11.22;118.99
66035;HTU21D;52805;51.074;5.842;2023-12-22T14:00:29;11.17;118.99
66035;HTU21D;52805;51.074;5.842;2023-12-22T14:02:57;11.19;118.99
66035;HTU21D;52805;51.074;5.842;2023-12-22T14:05:23;11.23;118.99
66035;HTU21D;52805;51.074;5.842;2023-12-22T14:07:49;11.16;118.99
66035;HTU21D;52805;51.074;5.842;2023-12-22T14:10:15;11.12;118.99
66035;HTU21D;52805;51.074;5.842;2023-12-22T14:12:41;11.16;118.99
66035;HTU21D;52805;51.074;5.842;2023-12-22T14:15:08;11.09;118.99
66035;HTU21D;52805;51.074;5.842;2023-12-22T14:17:34;11.07;118.99
66035;HTU21D;52805;51.074;5.842;2023-12-22T14:19:59;11.07;118.99
66035;HTU21D;52805;51.074;5.842;2023-12-22T14:22:25;11.11;118.99
66035;HTU21D;52805;51.074;5.842;2023-12-22T14:24:52;11.08;118.99
66035;HTU21D;52805;51.074;5.842;2023-12-22T14:27:18;11.11;118.99
66035;HTU21D;52805;51.074;5.842;2023-12-22T14:29:45;11.14;118.99
66035;HTU21D;52805;51.074;5.842;2023-12-22T14:32:10;11.09;118.99
66035;HTU21D;52805;51.074;5.842;2023-12-22T14:34:45;11.01;118.99
66035;HTU21D;52805;51.074;5.842;2023-12-22T14:37:11;11.01;118.99
66035;HTU21D;52805;51.074;5.842;2023-12-22T14:39:36;11.03;118.99
66035;HTU21D;52805;51.074;5.842;2023-12-22T14:42:02;11.00;118.99
66035;HTU21D;52805;51.074;5.842;2023-12-22T14:44:28;11.01;118.99
66035;HTU21D;52805;51.074;5.842;2023-12-22T14:46:54;10.96;118.99
66035;HTU21D;52805;51.074;5.842;2023-12-22T14:49:20;10.90;118.99
66035;HTU21D;52805;51.074;5.842;2023-12-22T14:51:45;10.89;118.99
66035;HTU21D;52805;51.074;5.842;2023-12-22T14:54:19;10.95;118.99
66035;HTU21D;52805;51.074;5.842;2023-12-22T14:56:46;10.96;118.99
66035;HTU21D;52805;51.074;5.842;2023-12-22T14:59:12;11.00;118.99
66035;HTU21D;52805;51.074;5.842;2023-12-22T15:01:40;10.98;118.99
66035;HTU21D;52805;51.074;5.842;2023-12-22T15:04:06;11.07;118.99
66035;HTU21D;52805;51.074;5.842;2023-12-22T15:06:32;11.01;118.99
66035;HTU21D;52805;51.074;5.842;2023-12-22T15:09:00;10.93;118.99
66035;HTU21D;52805;51.074;5.842;2023-12-22T15:11:27;10.97;118.99
66035;HTU21D;52805;51.074;5.842;2023-12-22T15:13:52;10.99;118.99
66035;HTU21D;52805;51.074;5.842;2023-12-22T15:16:18;11.02;118.99
66035;HTU21D;52805;51.074;5.842;2023-12-22T15:18:44;10.97;118.99
66035;HTU21D;52805;51.074;5.842;2023-12-22T15:21:09;11.01;118.99